sensor_id;sensor_type;location;lat;lon;timestamp;P1;durP1;ratioP1;P2;durP2;ratioP2
82760;SDS011;72498;42.022;21.444;2024-02-26T00:00:43;16.27;;;7.70;;
82760;SDS011;72498;42.022;21.444;2024-02-26T00:03:12;13.75;;;7.22;;
82760;SDS011;72498;42.022;21.444;2024-02-26T00:05:42;21.52;;;8.27;;
82760;SDS011;72498;42.022;21.444;2024-02-26T00:08:31;18.80;;;8.65;;
82760;SDS011;72498;42.022;21.444;2024-02-26T00:10:58;14.43;;;7.07;;
82760;SDS011;72498;42.022;21.444;2024-02-26T00:13:27;14.52;;;7.82;;
82760;SDS011;72498;42.022;21.444;2024-02-26T00:15:53;13.55;;;7.15;;
82760;SDS011;72498;42.022;21.444;2024-02-26T00:18:19;17.02;;;7.60;;
82760;SDS011;72498;42.022;21.444;2024-02-26T00:20:45;13.15;;;6.72;;
82760;SDS011;72498;42.022;21.444;2024-02-26T00:23:14;12.93;;;6.18;;
82760;SDS011;72498;42.022;21.444;2024-02-26T00:25:40;13.07;;;6.45;;
82760;SDS011;72498;42.022;21.444;2024-02-26T00:28:08;16.05;;;6.03;;
82760;SDS011;72498;42.022;21.444;2024-02-26T00:30:34;11.75;;;6.40;;
82760;SDS011;72498;42.022;21.444;2024-02-26T00:33:01;11.45;;;6.50;;
82760;SDS011;72498;42.022;21.444;2024-02-26T00:35:27;11.25;;;6.18;;
82760;SDS011;72498;42.022;21.444;2024-02-26T00:37:56;9.80;;;5.45;;
82760;SDS011;72498;42.022;21.444;2024-02-26T00:40:24;10.93;;;5.97;;
82760;SDS011;72498;42.022;21.444;2024-02-26T00:42:51;15.93;;;5.78;;
82760;SDS011;72498;42.022;21.444;2024-02-26T00:45:17;11.43;;;5.65;;
82760;SDS011;72498;42.022;21.444;2024-02-26T00:47:43;12.10;;;5.50;;
82760;SDS011;72498;42.022;21.444;2024-02-26T00:50:12;11.00;;;5.60;;
82760;SDS011;72498;42.022;21.444;2024-02-26T00:52:38;12.85;;;5.40;;
82760;SDS011;72498;42.022;21.444;2024-02-26T00:55:06;10.88;;;5.32;;
82760;SDS011;72498;42.022;21.444;2024-02-26T00:57:33;12.85;;;5.95;;
82760;SDS011;72498;42.022;21.444;2024-02-26T00:59:59;11.02;;;5.18;;
82760;SDS011;72498;42.022;21.444;2024-02-26T01:02:26;12.43;;;5.13;;
82760;SDS011;72498;42.022;21.444;2024-02-26T01:04:58;11.05;;;5.25;;
82760;SDS011;72498;42.022;21.444;2024-02-26T01:07:44;10.98;;;5.95;;
82760;SDS011;72498;42.022;21.444;2024-02-26T01:10:10;12.82;;;5.50;;
82760;SDS011;72498;42.022;21.444;2024-02-26T01:12:37;11.57;;;5.70;;
82760;SDS011;72498;42.022;21.444;2024-02-26T01:15:03;13.88;;;5.55;;
82760;SDS011;72498;42.022;21.444;2024-02-26T01:17:29;11.95;;;6.28;;
82760;SDS011;72498;42.022;21.444;2024-02-26T01:19:56;12.15;;;6.13;;
82760;SDS011;72498;42.022;21.444;2024-02-26T01:22:22;14.07;;;6.75;;
82760;SDS011;72498;42.022;21.444;2024-02-26T01:24:48;13.40;;;6.18;;
82760;SDS011;72498;42.022;21.444;2024-02-26T01:27:16;11.38;;;6.43;;
82760;SDS011;72498;42.022;21.444;2024-02-26T01:29:42;12.18;;;5.80;;
82760;SDS011;72498;42.022;21.444;2024-02-26T01:32:08;22.80;;;11.80;;
82760;SDS011;72498;42.022;21.444;2024-02-26T01:34:34;22.50;;;13.13;;
82760;SDS011;72498;42.022;21.444;2024-02-26T01:37:02;26.90;;;15.77;;
82760;SDS011;72498;42.022;21.444;2024-02-26T01:39:28;22.10;;;13.55;;
82760;SDS011;72498;42.022;21.444;2024-02-26T01:41:57;26.90;;;15.00;;
82760;SDS011;72498;42.022;21.444;2024-02-26T01:44:24;24.92;;;14.27;;
82760;SDS011;72498;42.022;21.444;2024-02-26T01:46:52;26.50;;;14.93;;
82760;SDS011;72498;42.022;21.444;2024-02-26T01:49:18;25.08;;;14.13;;
82760;SDS011;72498;42.022;21.444;2024-02-26T01:51:45;26.55;;;14.75;;
82760;SDS011;72498;42.022;21.444;2024-02-26T01:54:11;27.70;;;14.73;;
82760;SDS011;72498;42.022;21.444;2024-02-26T01:56:37;29.20;;;16.27;;
82760;SDS011;72498;42.022;21.444;2024-02-26T01:59:04;25.13;;;14.88;;
82760;SDS011;72498;42.022;21.444;2024-02-26T02:01:31;27.95;;;16.08;;
82760;SDS011;72498;42.022;21.444;2024-02-26T02:03:58;30.63;;;15.02;;
82760;SDS011;72498;42.022;21.444;2024-02-26T02:06:24;26.00;;;15.15;;
82760;SDS011;72498;42.022;21.444;2024-02-26T02:08:52;26.40;;;15.20;;
82760;SDS011;72498;42.022;21.444;2024-02-26T02:11:18;26.73;;;15.82;;
82760;SDS011;72498;42.022;21.444;2024-02-26T02:13:45;30.65;;;17.48;;
82760;SDS011;72498;42.022;21.444;2024-02-26T02:16:11;31.70;;;16.65;;
82760;SDS011;72498;42.022;21.444;2024-02-26T02:18:38;27.90;;;16.17;;
82760;SDS011;72498;42.022;21.444;2024-02-26T02:21:04;32.85;;;17.83;;
82760;SDS011;72498;42.022;21.444;2024-02-26T02:23:30;30.13;;;18.48;;
82760;SDS011;72498;42.022;21.444;2024-02-26T02:25:56;33.15;;;17.65;;
82760;SDS011;72498;42.022;21.444;2024-02-26T02:28:25;27.48;;;16.70;;
82760;SDS011;72498;42.022;21.444;2024-02-26T02:30:51;32.10;;;18.40;;
82760;SDS011;72498;42.022;21.444;2024-02-26T02:33:18;30.45;;;17.75;;
82760;SDS011;72498;42.022;21.444;2024-02-26T02:35:44;29.38;;;17.25;;
82760;SDS011;72498;42.022;21.444;2024-02-26T02:38:11;32.75;;;17.20;;
82760;SDS011;72498;42.022;21.444;2024-02-26T02:40:37;32.28;;;17.67;;
82760;SDS011;72498;42.022;21.444;2024-02-26T02:43:03;28.15;;;16.35;;
82760;SDS011;72498;42.022;21.444;2024-02-26T02:45:29;32.95;;;16.85;;
82760;SDS011;72498;42.022;21.444;2024-02-26T02:47:56;28.42;;;17.15;;
82760;SDS011;72498;42.022;21.444;2024-02-26T02:50:22;31.05;;;17.95;;
82760;SDS011;72498;42.022;21.444;2024-02-26T02:52:48;33.67;;;16.70;;
82760;SDS011;72498;42.022;21.444;2024-02-26T02:55:15;27.05;;;16.33;;
82760;SDS011;72498;42.022;21.444;2024-02-26T02:57:41;29.00;;;17.60;;
82760;SDS011;72498;42.022;21.444;2024-02-26T03:00:09;28.77;;;17.67;;
82760;SDS011;72498;42.022;21.444;2024-02-26T03:02:35;31.17;;;17.67;;
82760;SDS011;72498;42.022;21.444;2024-02-26T03:05:03;29.52;;;17.10;;
82760;SDS011;72498;42.022;21.444;2024-02-26T03:07:29;31.73;;;16.75;;
82760;SDS011;72498;42.022;21.444;2024-02-26T03:09:55;28.52;;;17.02;;
82760;SDS011;72498;42.022;21.444;2024-02-26T03:12:21;30.30;;;16.63;;
82760;SDS011;72498;42.022;21.444;2024-02-26T03:14:47;29.92;;;16.92;;
82760;SDS011;72498;42.022;21.444;2024-02-26T03:17:14;31.40;;;17.67;;
82760;SDS011;72498;42.022;21.444;2024-02-26T03:19:40;30.13;;;17.13;;
82760;SDS011;72498;42.022;21.444;2024-02-26T03:22:06;29.83;;;17.70;;
82760;SDS011;72498;42.022;21.444;2024-02-26T03:24:33;29.10;;;17.85;;
82760;SDS011;72498;42.022;21.444;2024-02-26T03:26:59;28.65;;;16.58;;
82760;SDS011;72498;42.022;21.444;2024-02-26T03:29:25;29.50;;;17.58;;
82760;SDS011;72498;42.022;21.444;2024-02-26T03:31:51;30.00;;;17.25;;
82760;SDS011;72498;42.022;21.444;2024-02-26T03:34:17;33.35;;;17.75;;
82760;SDS011;72498;42.022;21.444;2024-02-26T03:36:44;33.28;;;18.73;;
82760;SDS011;72498;42.022;21.444;2024-02-26T03:39:11;29.70;;;16.80;;
82760;SDS011;72498;42.022;21.444;2024-02-26T03:41:37;28.42;;;17.58;;
82760;SDS011;72498;42.022;21.444;2024-02-26T03:44:03;45.92;;;18.02;;
82760;SDS011;72498;42.022;21.444;2024-02-26T03:46:29;33.25;;;18.75;;
82760;SDS011;72498;42.022;21.444;2024-02-26T03:48:55;30.05;;;16.83;;
82760;SDS011;72498;42.022;21.444;2024-02-26T03:51:22;28.85;;;16.65;;
82760;SDS011;72498;42.022;21.444;2024-02-26T03:53:48;30.63;;;17.65;;
82760;SDS011;72498;42.022;21.444;2024-02-26T03:56:14;31.40;;;17.90;;
82760;SDS011;72498;42.022;21.444;2024-02-26T03:58:40;30.55;;;18.05;;
82760;SDS011;72498;42.022;21.444;2024-02-26T04:01:07;32.55;;;18.33;;
82760;SDS011;72498;42.022;21.444;2024-02-26T04:03:34;27.50;;;16.10;;
82760;SDS011;72498;42.022;21.444;2024-02-26T04:06:00;30.42;;;17.33;;
82760;SDS011;72498;42.022;21.444;2024-02-26T04:08:26;30.08;;;16.13;;
82760;SDS011;72498;42.022;21.444;2024-02-26T04:10:52;31.35;;;16.60;;
82760;SDS011;72498;42.022;21.444;2024-02-26T04:13:19;32.38;;;17.60;;
82760;SDS011;72498;42.022;21.444;2024-02-26T04:15:45;28.67;;;16.23;;
82760;SDS011;72498;42.022;21.444;2024-02-26T04:18:12;35.35;;;19.20;;
82760;SDS011;72498;42.022;21.444;2024-02-26T04:20:39;34.67;;;18.42;;
82760;SDS011;72498;42.022;21.444;2024-02-26T04:23:07;32.28;;;18.75;;
82760;SDS011;72498;42.022;21.444;2024-02-26T04:25:33;34.83;;;18.98;;
82760;SDS011;72498;42.022;21.444;2024-02-26T04:27:59;31.13;;;18.35;;
82760;SDS011;72498;42.022;21.444;2024-02-26T04:30:25;32.97;;;17.80;;
82760;SDS011;72498;42.022;21.444;2024-02-26T04:32:52;37.92;;;19.85;;
82760;SDS011;72498;42.022;21.444;2024-02-26T04:35:18;27.55;;;15.75;;
82760;SDS011;72498;42.022;21.444;2024-02-26T04:37:44;34.22;;;17.45;;
82760;SDS011;72498;42.022;21.444;2024-02-26T04:40:20;32.97;;;18.35;;
82760;SDS011;72498;42.022;21.444;2024-02-26T04:42:46;32.55;;;18.88;;
82760;SDS011;72498;42.022;21.444;2024-02-26T04:45:12;34.38;;;18.98;;
82760;SDS011;72498;42.022;21.444;2024-02-26T04:47:39;35.00;;;18.77;;
82760;SDS011;72498;42.022;21.444;2024-02-26T04:50:05;32.10;;;18.55;;
82760;SDS011;72498;42.022;21.444;2024-02-26T04:52:31;31.38;;;17.77;;
82760;SDS011;72498;42.022;21.444;2024-02-26T04:54:57;32.40;;;18.85;;
82760;SDS011;72498;42.022;21.444;2024-02-26T04:57:25;30.70;;;17.77;;
82760;SDS011;72498;42.022;21.444;2024-02-26T04:59:51;33.53;;;18.35;;
82760;SDS011;72498;42.022;21.444;2024-02-26T05:02:17;30.10;;;17.48;;
82760;SDS011;72498;42.022;21.444;2024-02-26T05:04:43;37.50;;;18.95;;
82760;SDS011;72498;42.022;21.444;2024-02-26T05:07:10;34.47;;;20.10;;
82760;SDS011;72498;42.022;21.444;2024-02-26T05:09:37;33.05;;;17.35;;
82760;SDS011;72498;42.022;21.444;2024-02-26T05:12:03;32.97;;;17.23;;
82760;SDS011;72498;42.022;21.444;2024-02-26T05:14:30;30.52;;;17.48;;
82760;SDS011;72498;42.022;21.444;2024-02-26T05:16:57;34.25;;;18.33;;
82760;SDS011;72498;42.022;21.444;2024-02-26T05:19:25;33.30;;;18.17;;
82760;SDS011;72498;42.022;21.444;2024-02-26T05:21:51;30.67;;;16.90;;
82760;SDS011;72498;42.022;21.444;2024-02-26T05:24:17;30.08;;;17.58;;
82760;SDS011;72498;42.022;21.444;2024-02-26T05:26:43;32.08;;;18.30;;
82760;SDS011;72498;42.022;21.444;2024-02-26T05:29:09;31.83;;;17.88;;
82760;SDS011;72498;42.022;21.444;2024-02-26T05:31:36;28.48;;;16.60;;
82760;SDS011;72498;42.022;21.444;2024-02-26T05:34:02;29.45;;;15.57;;
82760;SDS011;72498;42.022;21.444;2024-02-26T05:36:28;28.92;;;15.80;;
82760;SDS011;72498;42.022;21.444;2024-02-26T05:38:58;27.40;;;15.73;;
82760;SDS011;72498;42.022;21.444;2024-02-26T05:41:26;28.52;;;15.75;;
82760;SDS011;72498;42.022;21.444;2024-02-26T05:43:55;30.27;;;16.63;;
82760;SDS011;72498;42.022;21.444;2024-02-26T05:46:22;35.88;;;17.25;;
82760;SDS011;72498;42.022;21.444;2024-02-26T05:48:49;30.13;;;17.48;;
82760;SDS011;72498;42.022;21.444;2024-02-26T05:51:15;32.08;;;17.25;;
82760;SDS011;72498;42.022;21.444;2024-02-26T05:53:41;33.63;;;16.73;;
82760;SDS011;72498;42.022;21.444;2024-02-26T05:56:08;31.52;;;16.85;;
82760;SDS011;72498;42.022;21.444;2024-02-26T05:58:34;31.63;;;18.38;;
82760;SDS011;72498;42.022;21.444;2024-02-26T06:01:00;34.63;;;17.92;;
82760;SDS011;72498;42.022;21.444;2024-02-26T06:03:26;37.67;;;19.25;;
82760;SDS011;72498;42.022;21.444;2024-02-26T06:05:59;31.13;;;17.70;;
82760;SDS011;72498;42.022;21.444;2024-02-26T06:08:34;35.80;;;18.73;;
82760;SDS011;72498;42.022;21.444;2024-02-26T06:11:04;35.90;;;19.40;;
82760;SDS011;72498;42.022;21.444;2024-02-26T06:13:30;36.40;;;20.55;;
82760;SDS011;72498;42.022;21.444;2024-02-26T06:15:56;36.17;;;19.02;;
82760;SDS011;72498;42.022;21.444;2024-02-26T06:18:23;40.08;;;19.42;;
82760;SDS011;72498;42.022;21.444;2024-02-26T06:20:57;36.03;;;17.15;;
82760;SDS011;72498;42.022;21.444;2024-02-26T06:23:24;39.25;;;19.05;;
82760;SDS011;72498;42.022;21.444;2024-02-26T06:25:51;33.05;;;18.95;;
82760;SDS011;72498;42.022;21.444;2024-02-26T06:31:07;33.58;;;19.17;;
82760;SDS011;72498;42.022;21.444;2024-02-26T06:33:39;36.13;;;19.80;;
82760;SDS011;72498;42.022;21.444;2024-02-26T06:36:18;39.80;;;19.95;;
82760;SDS011;72498;42.022;21.444;2024-02-26T06:38:46;44.35;;;21.05;;
82760;SDS011;72498;42.022;21.444;2024-02-26T06:41:14;35.85;;;21.17;;
82760;SDS011;72498;42.022;21.444;2024-02-26T06:44:01;38.03;;;19.65;;
82760;SDS011;72498;42.022;21.444;2024-02-26T06:46:32;32.00;;;19.15;;
82760;SDS011;72498;42.022;21.444;2024-02-26T06:48:59;43.25;;;20.77;;
82760;SDS011;72498;42.022;21.444;2024-02-26T06:51:25;36.60;;;19.83;;
82760;SDS011;72498;42.022;21.444;2024-02-26T06:53:57;34.22;;;20.10;;
82760;SDS011;72498;42.022;21.444;2024-02-26T06:56:26;37.75;;;21.27;;
82760;SDS011;72498;42.022;21.444;2024-02-26T06:59:16;37.85;;;21.10;;
82760;SDS011;72498;42.022;21.444;2024-02-26T07:02:24;36.80;;;21.05;;
82760;SDS011;72498;42.022;21.444;2024-02-26T07:39:26;30.02;;;16.95;;
82760;SDS011;72498;42.022;21.444;2024-02-26T07:45:15;29.38;;;16.10;;
82760;SDS011;72498;42.022;21.444;2024-02-26T11:12:07;8.50;;;2.75;;
82760;SDS011;72498;42.022;21.444;2024-02-26T11:14:43;12.55;;;4.00;;
82760;SDS011;72498;42.022;21.444;2024-02-26T11:17:10;14.10;;;3.83;;
82760;SDS011;72498;42.022;21.444;2024-02-26T11:19:43;7.22;;;3.08;;
82760;SDS011;72498;42.022;21.444;2024-02-26T11:24:55;9.05;;;2.90;;
82760;SDS011;72498;42.022;21.444;2024-02-26T11:30:20;8.02;;;2.60;;
82760;SDS011;72498;42.022;21.444;2024-02-26T11:41:30;6.57;;;2.67;;
82760;SDS011;72498;42.022;21.444;2024-02-26T11:44:05;6.97;;;2.40;;
82760;SDS011;72498;42.022;21.444;2024-02-26T11:46:38;7.60;;;3.10;;
82760;SDS011;72498;42.022;21.444;2024-02-26T11:52:02;7.75;;;2.85;;
82760;SDS011;72498;42.022;21.444;2024-02-26T11:57:28;10.02;;;2.45;;
82760;SDS011;72498;42.022;21.444;2024-02-26T12:02:52;10.35;;;2.97;;
82760;SDS011;72498;42.022;21.444;2024-02-26T12:05:48;7.15;;;2.65;;
82760;SDS011;72498;42.022;21.444;2024-02-26T12:08:17;10.35;;;2.72;;
82760;SDS011;72498;42.022;21.444;2024-02-26T12:13:37;8.23;;;2.30;;
82760;SDS011;72498;42.022;21.444;2024-02-26T12:16:03;6.78;;;2.58;;
82760;SDS011;72498;42.022;21.444;2024-02-26T12:18:37;7.30;;;2.60;;
82760;SDS011;72498;42.022;21.444;2024-02-26T12:21:19;8.30;;;2.40;;
82760;SDS011;72498;42.022;21.444;2024-02-26T12:23:53;9.07;;;2.38;;
82760;SDS011;72498;42.022;21.444;2024-02-26T12:26:20;6.28;;;2.40;;
82760;SDS011;72498;42.022;21.444;2024-02-26T12:28:50;6.63;;;2.53;;
82760;SDS011;72498;42.022;21.444;2024-02-26T12:31:17;8.77;;;2.33;;
82760;SDS011;72498;42.022;21.444;2024-02-26T12:33:43;10.95;;;2.63;;
82760;SDS011;72498;42.022;21.444;2024-02-26T12:36:16;6.32;;;2.30;;
82760;SDS011;72498;42.022;21.444;2024-02-26T14:06:57;9.48;;;2.92;;
82760;SDS011;72498;42.022;21.444;2024-02-26T14:09:39;11.32;;;2.90;;
82760;SDS011;72498;42.022;21.444;2024-02-26T14:17:32;8.07;;;3.15;;
82760;SDS011;72498;42.022;21.444;2024-02-26T14:20:00;7.72;;;3.55;;
82760;SDS011;72498;42.022;21.444;2024-02-26T14:22:27;10.45;;;2.97;;
82760;SDS011;72498;42.022;21.444;2024-02-26T14:24:58;9.35;;;3.45;;
82760;SDS011;72498;42.022;21.444;2024-02-26T14:27:31;8.63;;;3.33;;
82760;SDS011;72498;42.022;21.444;2024-02-26T14:33:09;11.07;;;4.28;;
82760;SDS011;72498;42.022;21.444;2024-02-26T19:12:19;22.40;;;10.55;;
82760;SDS011;72498;42.022;21.444;2024-02-26T21:25:31;42.42;;;23.73;;
82760;SDS011;72498;42.022;21.444;2024-02-26T21:28:01;42.20;;;24.35;;
82760;SDS011;72498;42.022;21.444;2024-02-26T21:30:29;45.80;;;25.60;;
82760;SDS011;72498;42.022;21.444;2024-02-26T21:33:15;46.03;;;25.63;;
82760;SDS011;72498;42.022;21.444;2024-02-26T21:36:08;46.60;;;26.77;;
82760;SDS011;72498;42.022;21.444;2024-02-26T21:38:37;47.75;;;26.85;;
82760;SDS011;72498;42.022;21.444;2024-02-26T22:53:59;24.52;;;9.23;;
82760;SDS011;72498;42.022;21.444;2024-02-26T22:56:26;18.92;;;7.88;;
82760;SDS011;72498;42.022;21.444;2024-02-26T22:58:56;20.92;;;9.07;;
82760;SDS011;72498;42.022;21.444;2024-02-26T23:01:25;20.48;;;9.52;;
82760;SDS011;72498;42.022;21.444;2024-02-26T23:06:28;20.48;;;10.02;;
82760;SDS011;72498;42.022;21.444;2024-02-26T23:08:54;26.25;;;10.77;;
82760;SDS011;72498;42.022;21.444;2024-02-26T23:11:22;25.65;;;10.63;;
82760;SDS011;72498;42.022;21.444;2024-02-26T23:13:53;23.85;;;10.57;;
82760;SDS011;72498;42.022;21.444;2024-02-26T23:16:24;22.23;;;10.05;;
82760;SDS011;72498;42.022;21.444;2024-02-26T23:18:53;21.77;;;9.90;;
82760;SDS011;72498;42.022;21.444;2024-02-26T23:21:19;25.52;;;9.93;;
82760;SDS011;72498;42.022;21.444;2024-02-26T23:23:49;23.23;;;9.23;;
82760;SDS011;72498;42.022;21.444;2024-02-26T23:26:15;24.00;;;10.45;;
82760;SDS011;72498;42.022;21.444;2024-02-26T23:28:42;19.58;;;8.23;;
82760;SDS011;72498;42.022;21.444;2024-02-26T23:31:08;18.80;;;8.57;;
82760;SDS011;72498;42.022;21.444;2024-02-26T23:33:51;17.80;;;8.15;;
82760;SDS011;72498;42.022;21.444;2024-02-26T23:36:23;22.33;;;9.65;;
82760;SDS011;72498;42.022;21.444;2024-02-26T23:38:53;20.80;;;10.13;;
82760;SDS011;72498;42.022;21.444;2024-02-26T23:41:25;22.98;;;9.48;;
82760;SDS011;72498;42.022;21.444;2024-02-26T23:43:59;21.38;;;8.98;;
82760;SDS011;72498;42.022;21.444;2024-02-26T23:46:30;25.30;;;8.77;;
82760;SDS011;72498;42.022;21.444;2024-02-26T23:49:02;22.73;;;9.60;;
82760;SDS011;72498;42.022;21.444;2024-02-26T23:51:32;22.10;;;9.48;;
82760;SDS011;72498;42.022;21.444;2024-02-26T23:54:03;22.60;;;8.75;;
82760;SDS011;72498;42.022;21.444;2024-02-26T23:56:38;19.70;;;8.38;;
82760;SDS011;72498;42.022;21.444;2024-02-26T23:59:05;16.75;;;7.13;;
